createdAt,value
2018-08-20T00:02:07.156Z,20.00
2018-08-20T00:04:42.330Z,20.00
2018-08-20T00:07:12.373Z,20.10
2018-08-20T00:09:47.707Z,20.00
2018-08-20T00:12:20.209Z,19.90
2018-08-20T00:14:50.115Z,19.90
2018-08-20T00:17:20.089Z,19.90
2018-08-20T00:19:50.058Z,19.90
2018-08-20T00:22:20.347Z,19.90
2018-08-20T00:25:02.198Z,19.90
2018-08-20T00:27:33.233Z,19.80
2018-08-20T00:30:03.300Z,19.80
2018-08-20T00:32:33.165Z,19.80
2018-08-20T00:35:03.048Z,19.80
2018-08-20T00:37:32.945Z,19.80
2018-08-20T00:40:04.793Z,19.70
2018-08-20T00:42:34.783Z,19.60
2018-08-20T00:45:05.859Z,19.60
2018-08-20T00:47:36.289Z,19.60
2018-08-20T00:50:07.184Z,19.70
2018-08-20T00:52:37.474Z,19.60
2018-08-20T00:55:09.317Z,19.60
2018-08-20T00:57:39.206Z,19.60
2018-08-20T01:00:11.045Z,19.60
2018-08-20T01:02:41.490Z,19.60
2018-08-20T01:05:11.427Z,19.50
2018-08-20T01:07:41.489Z,19.50
2018-08-20T01:10:11.396Z,19.60
2018-08-20T01:12:41.430Z,19.60
2018-08-20T01:15:11.752Z,19.60
2018-08-20T01:17:41.732Z,19.50
2018-08-20T01:20:11.837Z,19.60
2018-08-20T01:22:41.741Z,19.60
2018-08-20T01:25:12.236Z,19.50
2018-08-20T01:27:46.262Z,19.60
2018-08-20T01:30:16.369Z,19.60
2018-08-20T01:32:46.275Z,19.50
2018-08-20T01:35:26.796Z,19.50
2018-08-20T01:37:57.181Z,19.50
2018-08-20T01:40:27.291Z,19.40
2018-08-20T01:42:57.330Z,19.40
2018-08-20T01:45:27.659Z,19.40
2018-08-20T01:47:57.610Z,19.40
2018-08-20T01:50:27.525Z,19.40
2018-08-20T01:52:57.461Z,19.40
2018-08-20T01:55:27.410Z,19.40
2018-08-20T01:57:57.299Z,19.40
2018-08-20T02:00:27.709Z,19.40
2018-08-20T02:03:01.799Z,19.30
2018-08-20T02:05:31.830Z,19.40
2018-08-20T02:08:02.190Z,19.40
2018-08-20T02:10:32.332Z,19.30
2018-08-20T02:13:02.517Z,19.40
2018-08-20T02:15:32.995Z,19.40
2018-08-20T02:18:03.093Z,19.40
2018-08-20T02:20:33.118Z,19.40
2018-08-20T02:23:03.151Z,19.30
2018-08-20T02:25:33.022Z,19.30
2018-08-20T02:28:03.168Z,19.30
2018-08-20T02:30:33.201Z,19.30
2018-08-20T02:33:03.199Z,19.20
2018-08-20T02:35:33.550Z,19.30
2018-08-20T02:38:03.519Z,19.20
2018-08-20T02:40:34.701Z,19.30
2018-08-20T02:43:04.862Z,19.30
2018-08-20T02:45:35.420Z,19.20
2018-08-20T02:48:05.621Z,19.10
2018-08-20T02:50:35.570Z,19.10
2018-08-20T02:53:05.739Z,19.10
2018-08-20T02:55:35.700Z,19.10
2018-08-20T02:58:06.404Z,19.10
2018-08-20T03:00:36.578Z,19.10
2018-08-20T03:03:06.761Z,19.10
2018-08-20T03:05:36.759Z,19.10
2018-08-20T03:08:07.046Z,19.00
2018-08-20T03:10:36.998Z,19.10
2018-08-20T03:13:07.611Z,19.00
2018-08-20T03:15:37.570Z,19.00
2018-08-20T03:18:07.551Z,19.00
2018-08-20T03:20:37.457Z,19.00
2018-08-20T03:23:07.802Z,18.90
2018-08-20T03:25:37.809Z,19.00
2018-08-20T03:28:08.506Z,19.00
2018-08-20T03:30:39.021Z,18.90
2018-08-20T03:33:09.214Z,18.90
2018-08-20T03:35:39.234Z,18.90
2018-08-20T03:38:09.340Z,19.00
2018-08-20T03:40:39.767Z,19.00
2018-08-20T03:43:09.794Z,18.90
2018-08-20T03:45:39.813Z,18.80
2018-08-20T03:48:09.959Z,18.90
2018-08-20T03:50:40.159Z,18.80
2018-08-20T03:53:10.143Z,18.80
2018-08-20T03:55:40.646Z,18.80
2018-08-20T03:58:10.877Z,18.80
2018-08-20T04:00:40.931Z,18.80
2018-08-20T04:03:11.881Z,18.90
2018-08-20T04:05:41.914Z,18.90
2018-08-20T04:08:11.999Z,18.90
2018-08-20T04:10:42.462Z,18.90
2018-08-20T04:13:12.857Z,18.90
2018-08-20T04:15:43.071Z,19.00
2018-08-20T04:18:13.057Z,19.00
2018-08-20T04:20:44.534Z,19.00
2018-08-20T04:23:14.642Z,19.00
2018-08-20T04:25:44.589Z,19.00
2018-08-20T04:28:14.771Z,19.00
2018-08-20T04:30:44.682Z,19.00
2018-08-20T04:33:14.821Z,19.00
2018-08-20T04:35:44.937Z,19.00
2018-08-20T04:38:14.849Z,19.10
2018-08-20T04:40:45.141Z,19.10
2018-08-20T04:43:15.183Z,19.10
2018-08-20T04:45:45.067Z,19.10
2018-08-20T04:48:14.990Z,19.10
2018-08-20T04:50:44.925Z,19.10
2018-08-20T04:53:14.926Z,19.10
2018-08-20T04:55:45.212Z,19.10
2018-08-20T04:58:15.610Z,19.10
2018-08-20T05:00:45.521Z,19.20
2018-08-20T05:03:17.454Z,19.20
2018-08-20T05:05:47.335Z,19.20
2018-08-20T05:08:17.518Z,19.20
2018-08-20T05:10:47.883Z,19.30
2018-08-20T05:13:17.750Z,19.30
2018-08-20T05:15:47.623Z,19.30
2018-08-20T05:18:17.484Z,19.20
2018-08-20T05:21:50.115Z,19.30
2018-08-20T05:24:21.110Z,19.30
2018-08-20T05:26:51.117Z,19.20
2018-08-20T05:29:21.572Z,19.20
2018-08-20T05:31:51.996Z,19.30
2018-08-20T05:34:23.124Z,19.30
2018-08-20T05:36:53.158Z,19.40
2018-08-20T05:39:23.425Z,19.50
2018-08-20T05:41:53.446Z,19.60
2018-08-20T05:44:23.702Z,19.70
2018-08-20T05:46:53.893Z,19.70
2018-08-20T05:49:23.887Z,19.60
2018-08-20T05:51:53.864Z,19.60
2018-08-20T05:54:23.820Z,19.70
2018-08-20T05:56:54.241Z,19.70
2018-08-20T05:59:24.487Z,19.70
2018-08-20T06:01:54.642Z,19.70
2018-08-20T06:04:24.531Z,19.70
2018-08-20T06:06:54.470Z,19.70
2018-08-20T06:09:24.551Z,19.60
2018-08-20T06:11:54.965Z,19.50
2018-08-20T06:14:24.865Z,19.40
2018-08-20T06:16:54.881Z,19.20
2018-08-20T06:19:26.502Z,18.90
2018-08-20T06:21:57.667Z,18.80
2018-08-20T06:24:27.945Z,18.70
2018-08-20T06:26:57.835Z,18.70
2018-08-20T06:29:27.746Z,18.60
2018-08-20T06:31:57.671Z,18.60
2018-08-20T06:34:28.231Z,18.50
2018-08-20T06:36:58.535Z,18.50
2018-08-20T06:39:30.674Z,18.50
2018-08-20T06:42:02.683Z,18.50
2018-08-20T06:44:32.982Z,18.50
2018-08-20T06:47:03.027Z,18.60
2018-08-20T06:49:33.498Z,18.50
2018-08-20T06:52:04.365Z,18.60
2018-08-20T06:54:35.074Z,18.70
2018-08-20T06:57:05.242Z,18.80
2018-08-20T06:59:35.710Z,18.90
2018-08-20T07:02:05.827Z,19.00
2018-08-20T07:04:35.789Z,19.10
2018-08-20T07:07:05.775Z,19.10
2018-08-20T07:09:35.670Z,19.10
2018-08-20T07:12:05.692Z,19.10
2018-08-20T07:14:36.051Z,19.20
2018-08-20T07:17:05.942Z,19.20
2018-08-20T07:19:36.549Z,19.30
2018-08-20T07:22:06.522Z,19.40
2018-08-20T07:24:36.397Z,19.50
2018-08-20T07:27:06.998Z,19.70
2018-08-20T07:29:41.468Z,19.60
2018-08-20T07:32:12.793Z,19.70
2018-08-20T07:34:44.608Z,19.70
2018-08-20T07:37:15.990Z,19.80
2018-08-20T07:39:47.111Z,19.90
2018-08-20T07:42:17.036Z,19.90
2018-08-20T07:44:47.531Z,19.90
2018-08-20T07:47:17.399Z,19.90
2018-08-20T07:49:47.717Z,20.00
2018-08-20T07:52:17.622Z,20.00
2018-08-20T07:54:48.058Z,20.00
2018-08-20T07:57:18.694Z,19.80
2018-08-20T07:59:49.017Z,19.70
2018-08-20T08:02:19.144Z,19.40
2018-08-20T08:04:49.393Z,19.10
2018-08-20T08:07:19.798Z,19.00
2018-08-20T08:09:51.088Z,18.80
2018-08-20T08:12:21.877Z,18.80
2018-08-20T08:14:51.874Z,19.00
2018-08-20T08:17:21.816Z,19.10
2018-08-20T08:19:52.552Z,19.30
2018-08-20T08:22:22.602Z,19.40
2018-08-20T08:24:52.590Z,19.50
2018-08-20T08:27:22.918Z,19.50
2018-08-20T08:29:52.801Z,19.60
2018-08-20T08:32:23.002Z,19.60
2018-08-20T08:34:53.090Z,19.70
2018-08-20T08:37:23.048Z,19.80
2018-08-20T08:39:53.014Z,19.90
2018-08-20T08:42:23.405Z,20.00
2018-08-20T08:44:53.462Z,20.40
2018-08-20T08:47:23.350Z,20.50
2018-08-20T08:49:53.289Z,20.40
2018-08-20T08:52:23.310Z,20.20
2018-08-20T08:54:53.222Z,20.00
2018-08-20T08:57:23.174Z,19.80
2018-08-20T08:59:53.494Z,19.80
2018-08-20T09:02:23.407Z,19.90
2018-08-20T09:04:53.348Z,20.00
2018-08-20T09:07:23.265Z,20.20
2018-08-20T09:09:53.603Z,20.40
2018-08-20T09:12:25.255Z,20.70
2018-08-20T09:14:56.104Z,20.70
2018-08-20T09:17:26.120Z,21.00
2018-08-20T09:19:57.114Z,21.20
2018-08-20T09:22:28.027Z,21.20
2018-08-20T09:24:59.783Z,21.10
2018-08-20T09:27:37.728Z,21.30
2018-08-20T09:30:13.606Z,21.50
2018-08-20T09:32:43.977Z,21.60
2018-08-20T09:35:13.950Z,21.60
2018-08-20T09:37:45.344Z,21.50
2018-08-20T09:40:16.158Z,21.40
2018-08-20T09:42:46.130Z,21.30
2018-08-20T09:45:16.792Z,21.00
2018-08-20T09:47:48.535Z,21.00
2018-08-20T09:50:18.585Z,21.00
2018-08-20T09:52:48.565Z,21.10
2018-08-20T09:55:18.494Z,21.10
2018-08-20T09:57:48.466Z,21.10
2018-08-20T10:00:23.876Z,21.00
2018-08-20T10:02:53.848Z,20.60
2018-08-20T10:05:24.009Z,20.30
2018-08-20T10:07:54.207Z,20.20
2018-08-20T10:10:24.945Z,20.20
2018-08-20T10:12:54.919Z,20.20
2018-08-20T10:15:25.788Z,20.30
2018-08-20T10:17:55.797Z,20.30
2018-08-20T10:20:26.604Z,20.10
2018-08-20T10:22:56.652Z,20.10
2018-08-20T10:25:28.358Z,20.20
2018-08-20T10:27:58.656Z,20.30
2018-08-20T10:30:28.625Z,20.40
2018-08-20T10:33:00.307Z,20.70
2018-08-20T10:35:30.285Z,21.00
2018-08-20T10:38:00.343Z,21.10
2018-08-20T10:40:30.613Z,21.40
2018-08-20T10:43:00.574Z,21.70
2018-08-20T10:45:35.862Z,21.80
2018-08-20T10:48:06.637Z,21.90
2018-08-20T10:50:36.537Z,21.80
2018-08-20T10:53:06.642Z,21.90
2018-08-20T10:55:36.966Z,21.90
2018-08-20T10:58:07.088Z,22.20
2018-08-20T11:00:36.987Z,22.10
2018-08-20T11:03:07.350Z,22.30
2018-08-20T11:05:37.430Z,22.40
2018-08-20T11:08:07.661Z,22.30
2018-08-20T11:10:37.845Z,22.10
2018-08-20T11:13:07.793Z,22.20
2018-08-20T11:15:38.022Z,22.60
2018-08-20T11:18:07.972Z,22.90
2018-08-20T11:20:37.846Z,23.20
2018-08-20T11:23:07.950Z,22.80
2018-08-20T11:25:38.099Z,22.20
2018-08-20T11:28:08.067Z,22.00
2018-08-20T11:30:37.977Z,21.60
2018-08-20T11:33:08.250Z,20.90
2018-08-20T11:35:38.246Z,20.30
2018-08-20T11:38:08.386Z,20.10
2018-08-20T11:40:38.543Z,20.40
2018-08-20T11:43:08.667Z,20.70
2018-08-20T11:45:38.729Z,21.00
2018-08-20T11:48:09.082Z,21.50
2018-08-20T11:50:39.087Z,21.50
2018-08-20T11:53:09.563Z,21.70
2018-08-20T11:55:39.812Z,21.90
2018-08-20T11:58:09.752Z,22.10
2018-08-20T12:00:39.629Z,22.10
2018-08-20T12:03:09.749Z,22.20
2018-08-20T12:05:39.666Z,22.10
2018-08-20T12:08:09.667Z,22.00
2018-08-20T12:10:39.870Z,21.90
2018-08-20T12:13:10.861Z,21.70
2018-08-20T12:15:40.987Z,21.70
2018-08-20T12:18:10.962Z,21.80
2018-08-20T12:20:41.342Z,22.10
2018-08-20T12:23:11.338Z,22.30
2018-08-20T12:25:41.279Z,22.50
2018-08-20T12:28:11.523Z,22.40
2018-08-20T12:30:41.567Z,22.30
2018-08-20T12:33:12.153Z,22.00
2018-08-20T12:35:42.502Z,22.10
2018-08-20T12:38:12.450Z,22.30
2018-08-20T12:40:42.713Z,22.60
2018-08-20T12:43:12.828Z,22.70
2018-08-20T12:45:42.781Z,22.60
2018-08-20T12:48:12.721Z,22.30
2018-08-20T12:50:42.797Z,22.50
2018-08-20T12:53:13.318Z,22.50
2018-08-20T12:55:43.198Z,22.80
2018-08-20T12:58:13.195Z,22.90
2018-08-20T13:00:43.489Z,22.80
2018-08-20T13:03:13.504Z,22.80
2018-08-20T13:05:43.410Z,22.80
2018-08-20T13:08:14.628Z,23.00
2018-08-20T13:10:44.798Z,23.20
2018-08-20T13:13:14.798Z,23.40
2018-08-20T13:15:46.013Z,23.30
2018-08-20T13:18:16.073Z,23.00
2018-08-20T13:20:46.014Z,22.70
2018-08-20T13:23:16.276Z,22.70
2018-08-20T13:25:46.424Z,22.50
2018-08-20T13:28:16.722Z,22.30
2018-08-20T13:30:48.158Z,22.60
2018-08-20T13:33:18.130Z,23.30
2018-08-20T13:35:48.418Z,24.30
2018-08-20T13:38:18.634Z,24.10
2018-08-20T13:40:49.049Z,24.80
2018-08-20T13:43:19.032Z,25.00
2018-08-20T13:45:49.331Z,25.50
2018-08-20T13:48:19.255Z,26.00
2018-08-20T13:50:50.204Z,25.40
2018-08-20T13:53:20.558Z,24.50
2018-08-20T13:55:50.564Z,23.70
2018-08-20T13:58:20.577Z,23.80
2018-08-20T14:00:50.562Z,23.60
2018-08-20T14:03:20.481Z,23.30
2018-08-20T14:05:50.507Z,23.00
2018-08-20T14:08:20.806Z,22.60
2018-08-20T14:10:50.795Z,22.70
2018-08-20T14:13:21.192Z,23.70
2018-08-20T14:15:51.255Z,25.60
2018-08-20T14:18:21.632Z,27.10
2018-08-20T14:21:02.137Z,27.10
2018-08-20T14:23:32.165Z,25.30
2018-08-20T14:26:02.303Z,25.70
2018-08-20T14:28:32.722Z,25.60
2018-08-20T14:31:02.827Z,26.10
2018-08-20T14:33:32.755Z,25.80
2018-08-20T14:36:03.142Z,25.30
2018-08-20T14:38:33.857Z,25.90
2018-08-20T14:41:04.334Z,26.10
2018-08-20T14:43:34.560Z,25.90
2018-08-20T14:46:10.361Z,25.90
2018-08-20T14:48:40.331Z,26.70
2018-08-20T14:51:10.590Z,26.80
2018-08-20T14:53:40.991Z,27.00
2018-08-20T14:56:11.164Z,27.20
2018-08-20T14:58:41.333Z,27.50
2018-08-20T15:01:11.429Z,28.20
2018-08-20T15:03:41.677Z,27.80
2018-08-20T15:06:12.583Z,27.70
2018-08-20T15:08:48.517Z,27.20
2018-08-20T15:11:18.791Z,27.50
2018-08-20T15:13:48.964Z,27.50
2018-08-20T15:16:20.016Z,26.10
2018-08-20T15:22:11.717Z,25.30
2018-08-20T15:24:42.017Z,24.90
2018-08-20T15:27:13.069Z,24.10
2018-08-20T15:29:43.754Z,23.40
2018-08-20T15:32:15.724Z,23.30
2018-08-20T15:34:45.697Z,23.30
2018-08-20T15:37:16.676Z,23.10
2018-08-20T15:39:46.839Z,23.10
2018-08-20T15:42:17.750Z,22.80
2018-08-20T15:44:48.246Z,22.70
2018-08-20T15:47:18.194Z,22.20
2018-08-20T15:49:49.023Z,22.20
2018-08-20T15:52:19.639Z,21.90
2018-08-20T15:54:50.589Z,21.90
2018-08-20T15:57:20.852Z,21.70
2018-08-20T15:59:51.322Z,21.70
2018-08-20T16:02:21.339Z,21.80
2018-08-20T16:04:51.230Z,21.80
2018-08-20T16:07:21.834Z,21.90
2018-08-20T16:09:51.734Z,21.80
2018-08-20T16:12:21.639Z,21.80
2018-08-20T16:14:52.062Z,22.00
2018-08-20T16:17:22.051Z,22.20
2018-08-20T16:19:51.965Z,22.60
2018-08-20T16:22:22.328Z,22.90
2018-08-20T16:24:52.290Z,22.90
2018-08-20T16:27:22.681Z,22.40
2018-08-20T16:29:53.124Z,21.90
2018-08-20T16:32:23.393Z,21.90
2018-08-20T16:34:53.511Z,22.00
2018-08-20T16:37:23.846Z,21.80
2018-08-20T16:39:53.966Z,22.00
2018-08-20T16:42:24.854Z,22.20
2018-08-20T16:44:54.816Z,22.10
2018-08-20T16:47:25.657Z,21.70
2018-08-20T16:49:55.606Z,21.50
2018-08-20T16:52:25.870Z,21.40
2018-08-20T16:54:55.777Z,21.30
2018-08-20T16:57:25.812Z,21.30
2018-08-20T16:59:56.809Z,21.10
2018-08-20T17:02:31.074Z,21.10
2018-08-20T17:05:01.208Z,21.10
2018-08-20T17:07:31.454Z,20.90
2018-08-20T17:10:01.464Z,20.90
2018-08-20T17:12:31.388Z,20.70
2018-08-20T17:15:01.801Z,20.70
2018-08-20T17:17:31.883Z,20.50
2018-08-20T17:20:01.829Z,20.50
2018-08-20T17:22:31.721Z,20.70
2018-08-20T17:25:02.013Z,20.70
2018-08-20T17:27:31.941Z,20.70
2018-08-20T17:30:02.323Z,20.70
2018-08-20T17:32:32.593Z,20.50
2018-08-20T17:35:02.711Z,20.30
2018-08-20T17:37:32.649Z,20.40
2018-08-20T17:40:05.433Z,20.30
2018-08-20T17:42:35.729Z,20.30
2018-08-20T17:45:06.217Z,20.10
2018-08-20T17:47:39.315Z,20.00
2018-08-20T17:50:21.469Z,19.90
2018-08-20T17:52:51.814Z,19.90
2018-08-20T17:55:21.797Z,19.70
2018-08-20T17:57:51.718Z,19.70
2018-08-20T18:00:34.770Z,19.60
2018-08-20T18:03:04.954Z,19.50
2018-08-20T18:05:35.232Z,19.50
2018-08-20T18:08:05.085Z,19.50
2018-08-20T18:10:34.970Z,19.40
2018-08-20T18:13:05.446Z,19.40
2018-08-20T18:15:35.343Z,19.30
2018-08-20T18:18:05.262Z,19.30
2018-08-20T18:20:40.014Z,19.30
2018-08-20T18:23:11.247Z,19.30
2018-08-20T18:25:42.503Z,19.40
2018-08-20T18:28:12.484Z,19.30
2018-08-20T18:30:42.366Z,19.20
2018-08-20T18:33:12.322Z,19.00
2018-08-20T18:35:42.247Z,18.90
2018-08-20T18:38:12.689Z,18.80
2018-08-20T18:40:42.671Z,18.70
2018-08-20T18:43:12.599Z,18.70
2018-08-20T18:45:42.506Z,18.60
2018-08-20T18:48:12.404Z,18.50
2018-08-20T18:50:43.010Z,18.40
2018-08-20T18:53:13.250Z,18.30
2018-08-20T18:55:52.787Z,18.30
2018-08-20T18:58:23.860Z,18.20
2018-08-20T19:00:53.766Z,18.10
2018-08-20T19:03:23.935Z,18.10
2018-08-20T19:05:54.314Z,18.00
2018-08-20T19:08:25.258Z,18.00
2018-08-20T19:10:55.162Z,17.90
2018-08-20T19:13:25.481Z,17.90
2018-08-20T19:15:55.582Z,17.80
2018-08-20T19:18:31.406Z,17.80
2018-08-20T19:21:01.463Z,17.70
2018-08-20T19:23:31.422Z,17.60
2018-08-20T19:26:01.394Z,17.60
2018-08-20T19:28:33.069Z,17.50
2018-08-20T19:31:03.012Z,17.50
2018-08-20T19:33:33.098Z,17.50
2018-08-20T19:36:04.379Z,17.40
2018-08-20T19:38:34.358Z,17.40
2018-08-20T19:41:09.112Z,17.30
2018-08-20T19:43:44.877Z,17.30
2018-08-20T19:46:15.957Z,17.20
2018-08-20T19:48:46.116Z,17.10
2018-08-20T19:51:15.998Z,17.10
2018-08-20T19:53:45.908Z,17.00
2018-08-20T19:56:15.830Z,17.00
2018-08-20T19:58:45.883Z,16.90
2018-08-20T20:01:18.287Z,16.90
2018-08-20T20:03:49.798Z,16.90
2018-08-20T20:06:19.856Z,16.80
2018-08-20T20:08:49.752Z,16.80
2018-08-20T20:11:25.261Z,16.80
2018-08-20T20:13:57.625Z,16.70
2018-08-20T20:16:31.933Z,16.60
2018-08-20T20:19:02.043Z,16.60
2018-08-20T20:21:37.398Z,16.50
2018-08-20T20:24:08.350Z,16.40
2018-08-20T20:26:38.346Z,16.40
2018-08-20T20:29:12.391Z,16.30
2018-08-20T20:31:43.475Z,16.30
2018-08-20T20:34:13.533Z,16.20
2018-08-20T20:36:43.434Z,16.20
2018-08-20T20:39:17.817Z,16.10
2018-08-20T20:41:48.089Z,16.10
2018-08-20T20:44:18.018Z,16.00
2018-08-20T20:46:47.946Z,16.00
2018-08-20T20:49:18.421Z,15.90
2018-08-20T20:51:48.320Z,15.90
2018-08-20T20:54:18.245Z,15.80
2018-08-20T20:56:48.588Z,15.80
2018-08-20T20:59:18.522Z,15.70
2018-08-20T21:01:48.414Z,15.70
2018-08-20T21:04:18.608Z,15.60
2018-08-20T21:06:48.511Z,15.60
2018-08-20T21:09:18.459Z,15.50
2018-08-20T21:11:48.420Z,15.50
2018-08-20T21:14:18.294Z,15.50
2018-08-20T21:16:48.662Z,15.50
2018-08-20T21:19:18.630Z,15.50
2018-08-20T21:21:48.544Z,15.50
2018-08-20T21:24:18.417Z,15.50
2018-08-20T21:26:48.590Z,15.50
2018-08-20T21:29:18.554Z,15.40
2018-08-20T21:31:52.610Z,15.40
2018-08-20T21:34:25.383Z,15.40
2018-08-20T21:36:55.344Z,15.30
2018-08-20T21:39:25.236Z,15.20
2018-08-20T21:41:55.682Z,15.20
2018-08-20T21:44:25.665Z,15.20
2018-08-20T21:46:55.575Z,15.10
2018-08-20T21:49:26.031Z,15.00
2018-08-20T21:51:59.038Z,14.90
2018-08-20T21:54:33.969Z,14.90
2018-08-20T21:57:03.934Z,14.90
2018-08-20T21:59:33.843Z,14.80
2018-08-20T22:02:04.440Z,14.80
2018-08-20T22:04:34.524Z,14.70
2018-08-20T22:07:04.562Z,14.70
2018-08-20T22:09:34.474Z,14.60
2018-08-20T22:12:04.473Z,14.60
2018-08-20T22:14:34.402Z,14.60
2018-08-20T22:17:04.657Z,14.70
2018-08-20T22:19:34.622Z,14.70
2018-08-20T22:22:04.566Z,14.70
2018-08-20T22:24:34.670Z,14.70
2018-08-20T22:27:05.074Z,14.60
2018-08-20T22:29:39.997Z,14.50
2018-08-20T22:32:10.399Z,14.50
2018-08-20T22:34:40.799Z,14.30
2018-08-20T22:37:10.667Z,14.20
2018-08-20T22:39:40.590Z,14.10
2018-08-20T22:42:10.850Z,14.10
2018-08-20T22:44:40.957Z,14.00
2018-08-20T22:47:11.110Z,13.90
2018-08-20T22:49:41.376Z,13.80
2018-08-20T22:52:13.167Z,13.80
2018-08-20T22:54:43.090Z,13.80
2018-08-20T22:57:13.580Z,13.80
2018-08-20T22:59:43.475Z,13.80
2018-08-20T23:02:13.730Z,13.90
2018-08-20T23:04:46.320Z,13.90
2018-08-20T23:07:17.106Z,14.00
2018-08-20T23:09:47.098Z,14.00
2018-08-20T23:12:17.298Z,14.10
2018-08-20T23:14:47.187Z,14.10
2018-08-20T23:17:17.335Z,14.10
2018-08-20T23:19:47.506Z,14.10
2018-08-20T23:22:17.401Z,14.10
2018-08-20T23:24:51.393Z,14.20
2018-08-20T23:27:25.122Z,14.20
2018-08-20T23:29:55.352Z,14.20
2018-08-20T23:32:25.493Z,14.20
2018-08-20T23:34:56.605Z,14.30
2018-08-20T23:37:26.770Z,14.30
2018-08-20T23:39:57.258Z,14.40
2018-08-20T23:42:27.617Z,14.50
2018-08-20T23:44:57.995Z,14.60
2018-08-20T23:47:27.903Z,14.60
2018-08-20T23:49:57.814Z,14.70
2018-08-20T23:52:27.722Z,14.70
2018-08-20T23:54:58.026Z,14.80
2018-08-20T23:57:27.978Z,14.80
2018-08-20T23:59:57.856Z,14.80
